Time;durP1;ratioP1;P1;durP2;ratioP2;P2;SDS_P1;SDS_P2;PMS_P1;PMS_P2;Temp;Humidity;BMP_temperature;BMP_pressure;BME280_temperature;BME280_humidity;BME280_pressure;Samples;Min_cycle;Max_cycle;Signal;HPM_P1;HPM_P2
2023/10/13 00:01:22;;;;;;;16.25;7.57;;;;;;;17.08;100.00;100908.56;5031207;28;20380;-58
2023/10/13 00:03:48;;;;;;;16.48;7.13;;;;;;;16.81;100.00;100851.69;5042982;28;20032;-57
2023/10/13 00:06:13;;;;;;;14.63;8.30;;;;;;;17.14;100.00;100905.56;5030623;28;20041;-59
2023/10/13 00:08:39;;;;;;;16.30;9.52;;;;;;;16.96;100.00;100880.03;5015003;28;20508;-55
2023/10/13 00:11:05;;;;;;;14.02;9.57;;;;;;;16.76;100.00;100837.78;5030094;28;20034;-59
2023/10/13 00:13:42;;;;;;;16.58;10.07;;;;;;;17.13;100.00;100903.00;5011382;28;20505;-57
2023/10/13 00:16:09;;;;;;;20.50;11.07;;;;;;;16.91;100.00;100868.81;5013034;28;20374;-57
2023/10/13 00:18:41;;;;;;;16.80;10.15;;;;;;;17.09;100.00;100897.00;5014171;28;20045;-54
2023/10/13 00:21:12;;;;;;;19.40;11.77;;;;;;;16.98;100.00;100866.66;5015117;28;20121;-57
2023/10/13 00:23:38;;;;;;;;;;;;;;;17.06;100.00;100886.53;5013838;28;20113;-56
2023/10/13 00:26:05;;;;;;;20.10;12.27;;;;;;;16.99;100.00;100887.81;5027867;28;19972;-58
2023/10/13 00:28:43;;;;;;;18.30;12.25;;;;;;;16.67;100.00;100819.72;5013964;28;20030;-57
2023/10/13 00:31:12;;;;;;;20.65;10.80;;;;;;;17.02;100.00;100876.16;5012592;28;20046;-56
2023/10/13 00:33:46;;;;;;;16.30;10.85;;;;;;;16.69;100.00;100825.81;5012133;28;20038;-56
2023/10/13 00:36:19;;;;;;;20.30;12.27;;;;;;;16.90;100.00;100866.25;5012080;28;20509;-57
2023/10/13 00:38:48;;;;;;;18.05;12.93;;;;;;;16.98;100.00;100878.16;5013972;28;20057;-54
2023/10/13 00:41:16;;;;;;;18.75;13.40;;;;;;;16.42;100.00;100798.97;5023258;28;20038;-57
2023/10/13 00:43:45;;;;;;;21.83;16.15;;;;;;;16.95;100.00;100865.03;5013615;28;20397;-57
2023/10/13 00:46:13;;;;;;;23.63;16.88;;;;;;;16.64;100.00;100810.13;5028170;28;20100;-57
2023/10/13 00:48:51;;;;;;;25.45;17.85;;;;;;;16.60;100.00;100800.63;5041026;28;20038;-56
2023/10/13 00:51:34;;;;;;;27.52;19.70;;;;;;;16.99;100.00;100855.91;5008542;28;20046;-55
2023/10/13 00:54:07;;;;;;;26.80;19.10;;;;;;;16.87;100.00;100848.66;4997334;28;20029;-55
2023/10/13 00:56:34;;;;;;;30.83;20.80;;;;;;;16.96;100.00;100845.47;5018108;28;20469;-54
2023/10/13 00:59:02;;;;;;;29.77;21.45;;;;;;;16.59;100.00;100784.75;5019015;28;20033;-56
2023/10/13 01:01:36;;;;;;;31.20;21.05;;;;;;;16.57;100.00;100787.50;5012925;28;20037;-57
2023/10/13 01:04:04;;;;;;;31.52;21.42;;;;;;;16.52;100.00;100765.59;5011053;28;20048;-56
2023/10/13 01:06:30;;;;;;;30.83;21.88;;;;;;;16.90;100.00;100816.56;5028899;28;20057;-56
2023/10/13 01:09:18;;;;;;;36.28;22.95;;;;;;;16.65;100.00;100774.63;5014178;28;20034;-59
2023/10/13 01:11:47;;;;;;;29.98;22.08;;;;;;;16.66;100.00;100763.06;5012940;28;20070;-59
2023/10/13 01:14:17;;;;;;;27.58;21.40;;;;;;;16.98;100.00;100817.00;5020463;28;20061;-57
2023/10/13 01:16:46;;;;;;;30.77;22.05;;;;;;;16.98;100.00;100824.97;5016734;28;20456;-55
2023/10/13 01:19:18;;;;;;;27.45;20.63;;;;;;;16.45;100.00;100718.25;5011301;28;20440;-60
2023/10/13 01:21:47;;;;;;;31.08;22.23;;;;;;;16.83;100.00;100804.59;5013761;28;20041;-58
2023/10/13 01:24:13;;;;;;;32.05;21.42;;;;;;;16.68;100.00;100774.44;5013543;28;20557;-59
2023/10/13 01:26:39;;;;;;;27.67;19.33;;;;;;;16.85;100.00;100802.69;5013221;28;20133;-56
2023/10/13 01:29:12;;;;;;;28.42;17.92;;;;;;;16.85;100.00;100802.69;5025844;28;20130;-56
2023/10/13 01:31:47;;;;;;;29.77;19.17;;;;;;;16.51;100.00;100744.47;5012107;28;20126;-53
2023/10/13 01:34:21;;;;;;;23.23;16.42;;;;;;;16.48;100.00;100736.66;5011409;28;20025;-55
2023/10/13 01:36:54;;;;;;;27.60;15.85;;;;;;;16.19;100.00;100683.44;5032222;28;20030;-56
2023/10/13 01:39:22;;;;;;;23.83;14.85;;;;;;;16.82;100.00;100792.25;5012213;28;20163;-55
2023/10/13 01:41:55;;;;;;;22.40;15.10;;;;;;;16.78;100.00;100788.91;5013589;28;20401;-56
2023/10/13 01:44:20;;;;;;;22.23;14.00;;;;;;;16.42;100.00;100721.09;5013397;28;20037;-57
2023/10/13 01:46:47;;;;;;;21.42;14.40;;;;;;;16.52;100.00;100720.44;5012429;28;20060;-56
2023/10/13 01:49:15;;;;;;;22.40;15.32;;;;;;;16.16;100.00;100678.31;5011965;28;20137;-56
2023/10/13 01:51:40;;;;;;;23.85;15.35;;;;;;;16.85;100.00;100781.44;5012937;28;20046;-55
2023/10/13 01:54:11;;;;;;;21.15;15.43;;;;;;;16.62;100.00;100734.09;5012437;28;20080;-56
2023/10/13 01:56:42;;;;;;;30.83;16.65;;;;;;;16.87;100.00;100785.69;5011517;28;20030;-57
2023/10/13 01:59:09;;;;;;;20.17;15.50;;;;;;;16.57;100.00;100714.91;5013229;28;20481;-52
2023/10/13 02:01:34;;;;;;;23.40;16.27;;;;;;;16.74;100.00;100762.59;5011707;28;20030;-57
2023/10/13 02:04:03;;;;;;;22.40;14.90;;;;;;;16.73;100.00;100728.97;5021042;28;20049;-57
2023/10/13 02:06:33;;;;;;;21.90;15.55;;;;;;;16.87;100.00;100747.63;5023002;28;20069;-58
2023/10/13 02:09:10;;;;;;;19.77;14.73;;;;;;;16.77;100.00;100723.41;5011838;28;20409;-58
2023/10/13 02:11:37;;;;;;;21.75;15.45;;;;;;;16.60;100.00;100693.47;5012319;28;20068;-56
2023/10/13 02:14:03;;;;;;;20.67;16.02;;;;;;;16.45;100.00;100679.25;5011817;28;20129;-56
2023/10/13 02:16:30;;;;;;;24.38;15.57;;;;;;;16.31;100.00;100663.28;5012074;28;20053;-53
2023/10/13 02:18:57;;;;;;;22.90;14.85;;;;;;;16.61;100.00;100719.94;5012938;28;20038;-55
2023/10/13 02:21:31;;;;;;;19.85;15.68;;;;;;;16.36;100.00;100658.53;5012852;28;20115;-56
2023/10/13 02:23:59;;;;;;;18.85;13.95;;;;;;;16.68;100.00;100723.97;5011321;28;20176;-58
2023/10/13 02:26:32;;;;;;;19.35;14.45;;;;;;;16.71;100.00;100726.44;5009248;28;20121;-55
2023/10/13 02:28:58;;;;;;;19.50;14.32;;;;;;;16.25;100.00;100642.38;5012986;28;20484;-56
2023/10/13 02:31:27;;;;;;;20.95;14.65;;;;;;;16.33;100.00;100648.97;5027986;28;20144;-57
2023/10/13 02:33:53;;;;;;;20.10;14.60;;;;;;;16.37;100.00;100646.13;5011189;28;20112;-57
2023/10/13 02:36:22;;;;;;;19.70;14.57;;;;;;;16.69;100.00;100695.59;5012191;28;20180;-57
2023/10/13 02:38:51;;;;;;;17.10;14.68;;;;;;;16.70;100.00;100695.47;5012231;28;20145;-56
2023/10/13 02:41:28;;;;;;;16.85;14.85;;;;;;;16.58;100.00;100674.94;5011875;28;20045;-57
2023/10/13 02:43:55;;;;;;;21.60;17.27;;;;;;;16.65;100.00;100670.13;5026446;28;20033;-56
2023/10/13 02:46:23;;;;;;;22.08;16.55;;;;;;;16.30;100.00;100606.63;5012064;28;20038;-57
2023/10/13 02:48:57;;;;;;;23.58;16.40;;;;;;;16.68;100.00;100665.47;5012471;28;20125;-55
2023/10/13 02:51:31;;;;;;;24.45;17.58;;;;;;;16.44;100.00;100604.94;5011851;28;20512;-57
2023/10/13 02:54:02;;;;;;;21.33;16.67;;;;;;;16.33;100.00;100592.31;5011497;28;20076;-57
2023/10/13 02:56:28;;;;;;;23.38;15.85;;;;;;;16.31;100.00;100586.25;5012607;28;20033;-58
2023/10/13 02:58:56;;;;;;;24.90;17.48;;;;;;;16.39;100.00;100593.75;5012288;28;20057;-54
2023/10/13 03:01:27;;;;;;;30.33;18.42;;;;;;;16.52;100.00;100622.13;5011217;28;20045;-57
2023/10/13 03:03:55;;;;;;;21.23;16.48;;;;;;;16.33;100.00;100585.22;5025268;28;20045;-56
2023/10/13 03:06:24;;;;;;;22.10;16.80;;;;;;;16.61;100.00;100634.91;5010738;28;20092;-57
2023/10/13 03:08:50;;;;;;;25.73;16.95;;;;;;;16.35;100.00;100571.81;5011835;28;20034;-59
2023/10/13 03:11:21;;;;;;;26.80;17.35;;;;;;;16.62;100.00;100618.03;5009971;28;20401;-58
2023/10/13 03:13:46;;;;;;;;;;;;;;;16.65;100.00;100616.97;5012199;28;20042;-58
2023/10/13 03:16:19;;;;;;;27.70;16.95;;;;;;;16.66;100.00;100605.41;5010845;28;19917;-56
2023/10/13 03:18:53;;;;;;;21.50;15.40;;;;;;;16.60;100.00;100576.53;5011682;28;20042;-60
2023/10/13 03:21:28;;;;;;;23.20;14.98;;;;;;;16.66;100.00;100570.84;5011328;28;20073;-57
2023/10/13 03:23:55;;;;;;;21.98;14.10;;;;;;;16.62;100.00;100569.31;5011120;28;20041;-57
2023/10/13 03:26:21;;;;;;;18.80;14.32;;;;;;;16.39;100.00;100530.00;5011131;28;20046;-57
2023/10/13 03:28:52;;;;;;;23.55;13.63;;;;;;;16.40;100.00;100545.00;5011492;28;20042;-58
2023/10/13 03:31:19;;;;;;;19.65;12.65;;;;;;;16.15;100.00;100493.34;5023462;28;20539;-58
2023/10/13 03:33:46;;;;;;;20.65;11.95;;;;;;;16.52;100.00;100539.75;5012059;28;20038;-57
2023/10/13 03:36:35;;;;;;;22.40;12.45;;;;;;;16.44;100.00;100539.38;5011051;28;20030;-57
2023/10/13 03:38:57;;;;;;;16.15;9.70;;;;;;;16.15;100.00;100464.16;5026860;28;20080;-57
2023/10/13 03:41:24;;;;;;;12.50;8.50;;;;;;;16.16;100.00;100462.34;5013746;28;20038;-57
2023/10/13 03:44:07;;;;;;;10.88;7.97;;;;;;;16.49;100.00;100534.63;5013919;28;20049;-57
2023/10/13 03:46:33;;;;;;;12.98;6.95;;;;;;;16.36;100.00;100520.41;5014616;28;20289;-57
2023/10/13 03:49:01;;;;;;;14.57;7.43;;;;;;;16.11;100.00;100462.63;5015003;28;20125;-58
2023/10/13 03:51:30;;;;;;;8.82;6.75;;;;;;;16.07;100.00;100461.13;5012556;28;20026;-56
2023/10/13 03:53:56;;;;;;;10.30;6.65;;;;;;;16.33;100.00;100518.81;5015213;28;20073;-56
2023/10/13 03:56:28;;;;;;;8.50;6.95;;;;;;;16.37;100.00;100495.56;5015684;28;20080;-57
2023/10/13 03:58:57;;;;;;;12.23;8.02;;;;;;;16.02;100.00;100436.66;4996040;28;20030;-59
2023/10/13 04:01:34;;;;;;;13.30;7.75;;;;;;;16.35;100.00;100470.88;5011659;28;20070;-58
2023/10/13 04:04:04;;;;;;;15.30;8.38;;;;;;;16.01;100.00;100408.38;5015431;28;20061;-52
2023/10/13 04:17:22;;;;;;;10.70;8.60;;;;;;;16.07;100.00;100412.47;5011989;28;20115;-60
2023/10/13 04:25:35;;;;;;;13.60;10.15;;;;;;;16.49;100.00;100446.97;5002933;28;20485;-56
2023/10/13 04:34:02;;;;;;;10.93;9.75;;;;;;;16.80;100.00;100438.81;5014196;28;20486;-55
2023/10/13 04:41:37;;;;;;;10.93;9.77;;;;;;;16.55;100.00;100352.78;5013735;28;20038;-56
2023/10/13 04:51:59;;;;;;;9.20;7.28;;;;;;;17.02;100.00;100398.38;5014702;28;20045;-58
2023/10/13 04:54:44;;;;;;;9.70;7.68;;;;;;;17.01;100.00;100417.09;5014308;28;20122;-58
2023/10/13 05:51:46;;;;;;;9.70;5.70;;;;;;;16.42;100.00;100347.38;5012379;28;20038;-60
2023/10/13 06:29:48;;;;;;;12.93;7.45;;;;;;;16.65;100.00;100259.06;4992977;28;20061;-56
2023/10/13 06:32:16;;;;;;;16.35;8.32;;;;;;;16.58;100.00;100235.69;4997573;28;20470;-59
2023/10/13 06:34:47;;;;;;;17.13;8.95;;;;;;;16.81;100.00;100261.56;5027128;28;20046;-56
2023/10/13 06:37:22;;;;;;;11.63;8.63;;;;;;;16.88;100.00;100253.06;5012515;28;20037;-54
2023/10/13 06:39:56;;;;;;;18.10;10.65;;;;;;;16.96;100.00;100243.75;5011876;28;20071;-53
2023/10/13 06:42:27;;;;;;;20.70;11.30;;;;;;;16.93;100.00;100241.28;5011567;28;20038;-58
2023/10/13 06:44:55;;;;;;;;;;;;;;;17.09;100.00;100253.44;5008630;28;20049;-56
2023/10/13 06:47:24;;;;;;;18.10;12.43;;;;;;;16.79;100.00;100199.69;5010539;28;19948;-53
2023/10/13 06:49:54;;;;;;;16.27;12.90;;;;;;;16.77;100.00;100189.16;5012461;28;20045;-55
2023/10/13 06:52:22;;;;;;;19.55;13.85;;;;;;;17.17;100.00;100261.72;5010597;28;20038;-56
2023/10/13 06:54:50;;;;;;;19.40;12.15;;;;;;;16.99;100.00;100204.47;5012250;28;20037;-56
2023/10/13 06:57:20;;;;;;;18.73;12.73;;;;;;;17.22;100.00;100233.00;5010773;28;20439;-55
2023/10/13 06:59:46;;;;;;;18.83;13.20;;;;;;;17.20;100.00;100228.75;5008878;28;20045;-54
2023/10/13 07:02:20;;;;;;;15.05;10.85;;;;;;;17.33;100.00;100240.25;5006791;28;20088;-53
2023/10/13 07:04:46;;;;;;;16.92;11.40;;;;;;;17.14;100.00;100211.41;5011420;28;20057;-55
2023/10/13 07:07:15;;;;;;;15.60;10.38;;;;;;;17.42;100.00;100232.44;5010082;28;20444;-55
2023/10/13 07:09:41;;;;;;;16.08;10.55;;;;;;;17.47;100.00;100231.28;5012086;28;20041;-56
2023/10/13 07:12:06;;;;;;;13.15;9.35;;;;;;;17.19;100.00;100171.22;5012174;28;20116;-54
2023/10/13 07:14:41;;;;;;;16.40;9.43;;;;;;;17.49;100.00;100216.06;5015011;28;20105;-55
2023/10/13 07:17:08;;;;;;;12.90;8.73;;;;;;;17.24;100.00;100163.75;5030456;28;20419;-54
2023/10/13 07:19:34;;;;;;;16.67;9.35;;;;;;;17.66;100.00;100226.41;5016200;28;20042;-55
2023/10/13 07:22:21;;;;;;;16.30;8.82;;;;;;;17.29;100.00;100159.81;5015722;28;20129;-57
2023/10/13 07:24:50;;;;;;;14.65;7.40;;;;;;;17.61;100.00;100197.47;5016231;28;20404;-58
2023/10/13 07:27:25;;;;;;;13.27;8.43;;;;;;;17.73;100.00;100209.03;5013487;28;20050;-55
2023/10/13 07:30:14;;;;;;;13.43;7.85;;;;;;;17.67;100.00;100197.03;5013675;28;20037;-52
2023/10/13 07:32:46;;;;;;;16.67;7.93;;;;;;;17.75;100.00;100191.13;5041378;28;20113;-54
2023/10/13 07:35:17;;;;;;;12.95;8.20;;;;;;;17.83;100.00;100207.44;5029197;28;20030;-53
2023/10/13 07:37:43;;;;;;;14.13;7.82;;;;;;;17.76;100.00;100169.75;5046597;28;20169;-58
2023/10/13 07:43:00;;;;;;;12.30;6.65;;;;;;;17.60;100.00;100155.81;5015682;28;20045;-52
2023/10/13 07:45:38;;;;;;;9.95;6.97;;;;;;;17.97;100.00;100209.94;5016067;28;20042;-55
2023/10/13 07:48:20;;;;;;;12.52;6.78;;;;;;;18.03;100.00;100196.19;5015694;28;20447;-56
2023/10/13 07:51:01;;;;;;;14.32;6.90;;;;;;;18.11;100.00;100179.63;5014507;28;20026;-55
2023/10/13 07:53:28;;;;;;;12.57;6.95;;;;;;;18.10;100.00;100191.22;5047095;28;20092;-57
2023/10/13 07:55:56;;;;;;;14.07;6.75;;;;;;;18.16;100.00;100201.44;5015321;28;20080;-57
2023/10/13 07:58:25;;;;;;;13.23;6.90;;;;;;;18.28;100.00;100188.06;5015356;28;20037;-56
2023/10/13 08:01:42;;;;;;;8.25;6.32;;;;;;;18.37;100.00;100183.88;5015449;28;20472;-55
2023/10/13 08:03:45;;;;;;;12.27;5.97;;;;;;;18.45;100.00;100182.31;5011209;28;20549;-51
2023/10/13 08:08:38;;;;;;;11.80;5.57;;;;;;;18.50;100.00;100198.03;5015436;28;20131;-55
2023/10/13 08:14:22;;;;;;;11.38;5.38;;;;;;;18.42;100.00;100139.06;5013559;28;20042;-57
2023/10/13 08:16:54;;;;;;;13.57;5.75;;;;;;;17.86;100.00;100039.47;5015413;28;20030;-55
2023/10/13 08:19:26;;;;;;;12.68;5.85;;;;;;;18.71;100.00;100171.56;5015096;28;20100;-55
2023/10/13 08:21:57;;;;;;;17.30;6.05;;;;;;;18.64;100.00;100187.16;5014962;28;20042;-55
2023/10/13 08:24:55;;;;;;;12.65;6.35;;;;;;;18.65;100.00;100183.50;5045489;28;20030;-60
2023/10/13 08:27:34;;;;;;;11.48;5.60;;;;;;;18.23;100.00;100093.47;5013972;28;20054;-54
2023/10/13 08:32:54;;;;;;;8.63;5.15;;;;;;;18.25;100.00;100092.38;5013815;28;20136;-60
2023/10/13 08:43:12;;;;;;;13.82;5.82;;;;;;;18.62;100.00;100161.59;5014210;28;20041;-57
2023/10/13 09:01:12;;;;;;;10.55;4.72;;;;;;;18.57;100.00;100121.09;5014259;28;20462;-55
2023/10/13 09:03:40;;;;;;;11.48;5.97;;;;;;;18.79;100.00;100116.69;5013718;28;20030;-53
2023/10/13 09:06:14;;;;;;;11.20;5.03;;;;;;;18.80;100.00;100130.84;5013578;28;20038;-53
2023/10/13 09:09:26;;;;;;;12.68;5.63;;;;;;;18.67;100.00;100093.63;5012443;28;20030;-53
2023/10/13 09:11:48;;;;;;;16.02;5.70;;;;;;;18.89;100.00;100106.97;5011749;28;20113;-53
2023/10/13 09:14:33;;;;;;;13.85;5.57;;;;;;;19.10;100.00;100147.97;5013859;28;20038;-50
2023/10/13 09:17:38;;;;;;;11.70;5.38;;;;;;;19.13;100.00;100130.03;5026623;28;20061;-55
2023/10/13 09:23:48;;;;;;;13.18;5.70;;;;;;;19.06;100.00;100084.31;5013537;28;20042;-49
2023/10/13 09:26:08;;;;;;;16.25;5.97;;;;;;;19.40;100.00;100126.06;5007929;28;20050;-57
2023/10/13 09:28:31;;;;;;;9.70;5.50;;;;;;;19.04;100.00;100060.44;5013295;28;20053;-57
2023/10/13 09:30:59;;;;;;;14.63;5.70;;;;;;;19.40;100.00;100123.41;5014135;28;20087;-54
2023/10/13 09:33:50;;;;;;;11.20;5.05;;;;;;;19.48;100.00;100115.63;5013623;28;20108;-57
2023/10/13 09:36:16;;;;;;;11.43;4.55;;;;;;;19.16;100.00;100058.59;5012974;28;20042;-53
2023/10/13 09:38:48;;;;;;;13.68;5.20;;;;;;;19.15;100.00;100048.06;5027542;28;20065;-57
2023/10/13 09:41:25;;;;;;;11.05;4.97;;;;;;;19.59;100.00;100088.03;5010340;28;20440;-56
2023/10/13 09:43:51;;;;;;;14.90;5.65;;;;;;;19.79;100.00;100118.47;5012253;28;20187;-51
2023/10/13 09:46:23;;;;;;;14.80;5.45;;;;;;;19.86;100.00;100093.81;5012767;28;20544;-54
2023/10/13 09:49:04;;;;;;;12.23;5.18;;;;;;;19.60;100.00;100047.88;5012501;28;20052;-56
2023/10/13 09:51:31;;;;;;;14.63;5.38;;;;;;;19.63;100.00;100044.13;5013367;28;20061;-51
2023/10/13 09:54:06;;;;;;;14.00;5.05;;;;;;;19.84;100.00;100095.75;5044778;28;20030;-52
2023/10/13 09:57:03;;;;;;;10.20;6.22;;;;;;;19.61;100.00;100057.56;5044254;28;20120;-57
2023/10/13 09:59:36;;;;;;;13.82;5.30;;;;;;;19.95;100.00;100095.72;5040400;28;20038;-50
2023/10/13 10:02:08;;;;;;;11.38;5.97;;;;;;;20.12;100.00;100110.34;5012101;28;20064;-57
2023/10/13 10:04:44;;;;;;;11.77;4.95;;;;;;;19.97;100.00;100039.47;5043353;28;20469;-50
2023/10/13 10:07:10;;;;;;;13.60;5.65;;;;;;;20.13;100.00;100039.91;5042215;28;20037;-57
2023/10/13 10:09:38;;;;;;;15.40;5.80;;;;;;;20.29;100.00;100018.94;5012978;28;20064;-54
2023/10/13 10:12:18;;;;;;;10.77;5.00;;;;;;;20.78;100.00;100095.81;5011943;28;20030;-55
2023/10/13 10:15:06;;;;;;;12.30;5.10;;;;;;;21.00;100.00;100100.13;5012659;28;20026;-51
2023/10/13 10:17:39;;;;;;;12.50;5.35;;;;;;;21.07;100.00;100048.59;5011528;28;20042;-52
2023/10/13 10:20:14;;;;;;;11.82;5.10;;;;;;;21.65;100.00;100092.50;5013061;28;20040;-58
2023/10/13 10:22:44;;;;;;;11.15;5.05;;;;;;;21.82;100.00;100105.22;5011517;28;20030;-53
2023/10/13 10:25:24;;;;;;;16.65;5.75;;;;;;;22.03;100.00;100110.50;5012596;28;20065;-52
2023/10/13 10:27:59;;;;;;;9.55;5.13;;;;;;;21.92;100.00;100099.06;5012475;28;20060;-50
2023/10/13 10:30:28;;;;;;;17.08;5.45;;;;;;;21.80;100.00;100093.78;5044648;28;20034;-51
2023/10/13 10:33:01;;;;;;;13.35;5.63;;;;;;;21.73;100.00;100110.56;5011075;28;20558;-57
2023/10/13 10:35:32;;;;;;;12.35;5.82;;;;;;;21.48;100.00;100095.81;5011960;28;20041;-49
2023/10/13 10:38:24;;;;;;;14.07;5.40;;;;;;;21.16;100.00;100101.34;5012578;28;20095;-49
2023/10/13 10:41:00;;;;;;;13.18;5.00;;;;;;;21.08;100.00;100084.28;5012652;28;20468;-55
2023/10/13 10:46:18;;;;;;;12.60;5.35;;;;;;;20.77;100.00;100080.72;5012472;28;20080;-49
2023/10/13 10:48:47;;;;;;;13.25;5.20;;;;;;;20.77;100.00;100076.22;5011752;28;20466;-54
2023/10/13 10:51:21;;;;;;;11.02;5.95;;;;;;;20.76;100.00;100068.31;5012368;28;20489;-58
2023/10/13 10:53:49;;;;;;;16.15;6.15;;;;;;;20.95;100.00;100079.13;5042452;28;20033;-50
2023/10/13 10:56:25;;;;;;;14.50;6.18;;;;;;;21.00;100.00;100073.38;5010897;28;20029;-50
2023/10/13 10:58:57;;;;;;;13.48;6.97;;;;;;;20.57;100.00;99996.88;5040870;28;20436;-50
2023/10/13 11:01:23;;;;;;;10.45;5.07;;;;;;;20.89;100.00;100060.94;5012211;28;20484;-58
2023/10/13 11:04:08;;;;;;;12.07;6.13;;;;;;;20.90;100.00;100056.44;5026444;28;20030;-56
2023/10/13 11:06:38;;;;;;;9.90;5.45;;;;;;;20.74;100.00;100025.69;5026877;28;20088;-50
2023/10/13 11:09:18;;;;;;;10.35;5.25;;;;;;;20.48;100.00;99975.44;5010850;28;20069;-50
2023/10/13 11:11:44;;;;;;;12.48;5.40;;;;;;;20.86;100.00;100060.34;5012303;28;20088;-56
2023/10/13 11:14:22;;;;;;;11.43;5.35;;;;;;;20.49;100.00;99994.00;5012309;28;20079;-53
2023/10/13 11:16:53;;;;;;;17.08;6.35;;;;;;;20.54;100.00;99999.84;5012181;28;20066;-55
2023/10/13 11:19:28;;;;;;;12.63;5.80;;;;;;;20.92;100.00;100030.41;5010314;28;20428;-50
2023/10/13 11:21:57;;;;;;;19.60;6.47;;;;;;;21.11;100.00;100034.03;5012203;28;20070;-52
2023/10/13 11:24:22;;;;;;;16.92;5.75;;;;;;;21.17;100.00;100028.13;5011815;28;20062;-56
2023/10/13 11:26:52;;;;;;;11.82;5.53;;;;;;;20.83;100.00;99985.72;5012048;28;20520;-49
2023/10/13 11:29:30;;;;;;;15.35;5.90;;;;;;;21.17;100.00;100060.25;5011890;28;20053;-51
2023/10/13 11:31:59;;;;;;;16.08;6.53;;;;;;;20.81;100.00;99995.72;5012266;28;20519;-58
2023/10/13 11:34:25;;;;;;;11.85;5.97;;;;;;;21.05;100.00;100047.91;5011642;28;20034;-52
2023/10/13 11:36:50;;;;;;;14.27;6.78;;;;;;;20.83;100.00;99993.75;5010769;28;20026;-52
2023/10/13 11:39:42;;;;;;;13.25;5.55;;;;;;;21.16;100.00;100047.00;5012029;28;20448;-53
2023/10/13 11:42:10;;;;;;;13.52;5.53;;;;;;;21.14;100.00;100035.56;5011880;28;20066;-51
2023/10/13 11:44:43;;;;;;;16.15;6.85;;;;;;;20.76;100.00;99988.94;5010664;28;20030;-49
2023/10/13 11:47:32;;;;;;;11.85;5.57;;;;;;;20.71;100.00;99976.97;5011804;28;20033;-54
2023/10/13 11:49:58;;;;;;;11.50;5.55;;;;;;;20.87;100.00;99993.34;5011740;28;20041;-54
2023/10/13 11:52:26;;;;;;;9.23;5.13;;;;;;;20.90;100.00;100011.78;5011581;28;20113;-53
2023/10/13 11:54:51;;;;;;;14.75;5.75;;;;;;;21.15;100.00;100059.53;5011848;28;20034;-52
2023/10/13 11:57:19;;;;;;;10.07;5.60;;;;;;;20.76;100.00;100005.00;5011179;28;20049;-52
2023/10/13 11:59:52;;;;;;;14.95;5.95;;;;;;;20.73;100.00;100007.94;5014285;28;20125;-51
2023/10/13 12:04:54;;;;;;;15.07;6.18;;;;;;;20.81;100.00;100047.38;5015185;28;20088;-54
2023/10/13 12:07:20;;;;;;;15.52;5.97;;;;;;;20.86;100.00;100038.97;5015221;28;20385;-50
2023/10/13 12:12:25;;;;;;;15.65;5.80;;;;;;;20.95;100.00;100041.69;5014977;28;20037;-52
2023/10/13 12:14:56;;;;;;;16.75;5.82;;;;;;;21.00;100.00;100049.28;5013587;28;20433;-51
2023/10/13 12:17:28;;;;;;;16.48;5.97;;;;;;;20.67;100.00;99983.53;5014819;28;20435;-54
2023/10/13 12:19:58;;;;;;;16.73;6.43;;;;;;;20.76;100.00;99993.44;5013847;28;20497;-50
2023/10/13 12:22:28;;;;;;;16.75;5.80;;;;;;;21.07;100.00;100045.09;5015046;28;20096;-48
2023/10/13 12:24:56;;;;;;;15.30;6.00;;;;;;;20.80;100.00;99996.69;5014652;28;20424;-49
2023/10/13 12:27:34;;;;;;;14.13;6.07;;;;;;;20.65;100.00;99974.81;5013518;28;20050;-54
2023/10/13 12:30:07;;;;;;;12.48;5.25;;;;;;;20.97;100.00;100031.69;5012610;28;20396;-50
2023/10/13 12:32:34;;;;;;;15.15;6.70;;;;;;;20.56;100.00;99962.25;5013719;28;20045;-54
2023/10/13 12:35:16;;;;;;;24.17;7.10;;;;;;;20.82;100.00;100018.78;5012961;28;20473;-52
2023/10/13 12:53:53;;;;;;;11.85;6.43;;;;;;;20.08;100.00;99981.50;5012912;28;20137;-49
2023/10/13 12:56:26;;;;;;;9.45;5.85;;;;;;;20.08;100.00;99999.38;5012459;28;20048;-51
2023/10/13 12:58:52;;;;;;;16.40;6.65;;;;;;;20.01;100.00;99995.50;5012480;28;20473;-50
2023/10/13 13:01:22;;;;;;;12.98;5.80;;;;;;;19.61;100.00;99918.75;5012515;28;20044;-50
2023/10/13 13:03:55;;;;;;;13.30;6.20;;;;;;;19.73;100.00;99932.06;5012675;28;20061;-50
2023/10/13 13:06:24;;;;;;;18.23;7.28;;;;;;;19.67;100.00;99931.59;5026951;28;20040;-50
2023/10/13 13:08:53;;;;;;;14.45;6.72;;;;;;;20.05;100.00;99981.75;5012900;28;20044;-50
2023/10/13 13:11:19;;;;;;;17.35;6.97;;;;;;;20.07;100.00;100005.69;5011904;28;20044;-56
2023/10/13 13:13:47;;;;;;;10.45;6.32;;;;;;;19.65;100.00;99943.38;5012489;28;20041;-52
2023/10/13 13:16:24;;;;;;;8.68;5.78;;;;;;;19.98;100.00;100022.50;5012267;28;20038;-49
2023/10/13 13:18:55;;;;;;;16.52;6.15;;;;;;;19.71;100.00;99964.22;5012649;28;20516;-50
2023/10/13 13:21:24;;;;;;;13.95;6.75;;;;;;;19.98;100.00;99985.94;5011133;28;20072;-52
2023/10/13 13:23:50;;;;;;;16.92;6.50;;;;;;;20.00;100.00;99969.78;5012578;28;20049;-57
2023/10/13 13:26:18;;;;;;;17.23;6.70;;;;;;;20.07;100.00;99963.78;5012186;28;20599;-54
2023/10/13 13:28:56;;;;;;;15.80;6.57;;;;;;;20.15;100.00;99984.50;5012191;28;20038;-53
2023/10/13 13:31:26;;;;;;;16.63;6.47;;;;;;;20.06;100.00;99972.78;5041588;28;20046;-49
2023/10/13 13:33:52;;;;;;;12.90;6.00;;;;;;;19.84;100.00;99942.69;5011407;28;20037;-51
2023/10/13 13:36:18;;;;;;;16.67;6.82;;;;;;;19.84;100.00;99953.38;5012340;28;20041;-49
2023/10/13 13:38:49;;;;;;;12.77;5.82;;;;;;;19.80;100.00;99954.59;5012140;28;20125;-51
2023/10/13 13:41:16;;;;;;;;;;;;;;;20.11;100.00;100012.47;5042794;28;20061;-49
2023/10/13 13:43:55;;;;;;;11.93;6.43;;;;;;;20.07;100.00;100006.53;5043782;28;19923;-50
2023/10/13 13:46:32;;;;;;;11.73;6.45;;;;;;;19.69;100.00;99946.63;5026485;28;20096;-53
2023/10/13 13:48:59;;;;;;;14.43;6.82;;;;;;;19.70;100.00;99959.03;5012017;28;20501;-58
2023/10/13 13:51:28;;;;;;;14.80;7.30;;;;;;;19.91;100.00;100023.97;5043214;28;20034;-53
2023/10/13 13:53:55;;;;;;;17.02;8.35;;;;;;;19.36;100.00;99958.25;5042779;28;20564;-54
2023/10/13 13:56:25;;;;;;;15.50;7.47;;;;;;;19.42;100.00;100017.34;5010335;28;20049;-55
2023/10/13 13:58:51;;;;;;;14.55;8.10;;;;;;;19.08;100.00;99999.69;5042826;28;20116;-55
2023/10/13 14:01:21;;;;;;;18.17;7.40;;;;;;;18.88;100.00;100011.97;5011297;28;20096;-51
2023/10/13 14:03:50;;;;;;;16.38;8.98;;;;;;;18.64;100.00;99999.72;5011733;28;20129;-56
2023/10/13 14:06:23;;;;;;;17.27;8.43;;;;;;;18.50;100.00;100009.63;5011019;28;20397;-58
2023/10/13 14:08:51;;;;;;;19.40;8.80;;;;;;;18.00;100.00;99943.44;5010976;28;20034;-55
2023/10/13 14:12:25;;;;;;;21.25;10.25;;;;;;;17.95;100.00;99940.25;5011510;28;20524;-55
2023/10/13 14:16:50;;;;;;;15.35;8.18;;;;;;;18.15;100.00;99992.00;5012060;28;20084;-57
2023/10/13 14:19:28;;;;;;;14.45;8.02;;;;;;;18.11;100.00;100009.16;5011203;28;20116;-58
2023/10/13 14:21:54;;;;;;;14.45;6.38;;;;;;;17.85;100.00;99952.59;5011190;28;20128;-53
2023/10/13 14:24:27;;;;;;;14.93;5.55;;;;;;;17.68;100.00;99929.06;5026214;28;20120;-54
2023/10/13 14:26:56;;;;;;;13.10;5.13;;;;;;;17.60;100.00;99923.47;5010805;28;20054;-52
2023/10/13 14:29:26;;;;;;;13.55;5.25;;;;;;;17.62;100.00;99940.16;5011092;28;20048;-54
2023/10/13 14:31:52;;;;;;;14.23;4.55;;;;;;;17.54;100.00;99905.28;5010626;28;20109;-57
2023/10/13 14:34:17;;;;;;;13.63;3.90;;;;;;;17.62;100.00;99909.09;5010809;28;20120;-60
2023/10/13 14:36:48;;;;;;;13.95;3.33;;;;;;;17.61;100.00;99915.38;5010976;28;20092;-54
2023/10/13 14:39:14;;;;;;;13.25;4.03;;;;;;;17.90;100.00;99985.88;5009892;28;20061;-56